Terminal Aerodrome Forecast
Issued by NWS

Home | Current Version | Previous Version | Text Only | Print | Product List | Glossary On
Versions: 1 2 3 4 5 6 7 8 9 10 11 12 13
000
FTUS42 KMLB 280127 AAA
TAFTIX
TAF AMD
KTIX 280127Z 2801/2824 10012KT P6SM VCSH SCT035 BKN040
     FM280400 09008KT P6SM VCSH SCT030 SCT250
     FM281300 09011KT P6SM SCT020 SCT250
     FM281500 07014KT P6SM VCSH SCT040 SCT070
      AMD NOT SKED 2802/2812=

USA.gov is the U.S. government's official web portal to all federal, state and local government web resources and services.